Terminal Aerodrome Forecast
Issued by NWS

Home | Current Version | Previous Version | Text Only | Print | Product List | Glossary On
Versions: 1 2 3 4 5 6 7 8 9 10 11 12 13 14
822
FTAK31 PAJN 281722
TAFAGY
TAF
PAGY 281722Z 2818/2918 21018G27KT P6SM VCSH SCT025 BKN070
     FM290100 21012G20KT P6SM VCSH SCT025 BKN070
     FM290500 21007KT P6SM OVC050
      AMD LTD TO CLD VIS AND WIND=

USA.gov is the U.S. government's official web portal to all federal, state and local government web resources and services.